Ocean Defender — WDG5405 — position and weather

sailwx.info

Track history (hours):
 
Tides and Currents Weather Stations Pressure Air Temp Water Temp Dewpoint Dewpoint Depression Visibility Wind Speed Wind Dir Waves Ship Positions

Ocean Defender

Owner: Marine Spill Response Corporation, Long Beach, CA. More information available from US FCC via Universal Licensing System and Coast Guard Vessel Documentation Center.

Last reported at 2018-Feb-18 22:44 UTC. Time now 2018-Feb-19 12:00 UTC.
Position N 34°24' W 119°41'.

Length 20 m; draft 3 m.

Type: Pollution control. MMSI: 367546320.

Date/timePositionNaut miles runAvg speedWind from/ knotsBaromVisibWave heightAir tempDewpointWater temp
2018-Feb-18 22:44N 34°24' W 119°41'0 0.0
2018-Feb-18 21:41N 34°24' W 119°41'0 0.0
2018-Feb-18 21:20N 34°24' W 119°41'0 0.0
2018-Feb-18 18:53N 34°24' W 119°41'0 0.0
2018-Feb-18 17:32N 34°24' W 119°41'0 0.0
2018-Feb-18 17:05N 34°24' W 119°41'0 0.0
2018-Feb-18 16:53N 34°24' W 119°41'0 0.0
2018-Feb-18 16:29N 34°24' W 119°41'0 0.0
2018-Feb-18 13:59N 34°24' W 119°41'0 0.0
2018-Feb-18 13:29N 34°24' W 119°41'0 0.0
2018-Feb-18 10:35N 34°24' W 119°41'0 0.0
2018-Feb-18 10:20N 34°24' W 119°41'0 0.0
2018-Feb-18 09:59N 34°24' W 119°41'0 0.0
2018-Feb-18 09:26N 34°24' W 119°41'0 0.0
2018-Feb-18 08:38N 34°24' W 119°41'0 0.0
2018-Feb-18 08:29N 34°24' W 119°41'0 0.0
2018-Feb-18 07:02N 34°24' W 119°41'0 0.0
2018-Feb-18 06:41N 34°24' W 119°41'0 0.0
2018-Feb-18 04:59N 34°24' W 119°41'0 0.0
2018-Feb-18 04:02N 34°24' W 119°41'0 0.0
2018-Feb-18 03:53N 34°24' W 119°41'0 0.0
2018-Feb-18 02:17N 34°24' W 119°41'0 0.0
2018-Feb-17 23:13N 34°24' W 119°41'0 0.0
2018-Feb-17 22:43N 34°24' W 119°41'0 0.0
2018-Feb-17 20:35N 34°24' W 119°41'0 0.0
2018-Feb-17 20:22N 34°24' W 119°41'0 0.0
2018-Feb-17 18:53N 34°24' W 119°41'0 0.0
2018-Feb-17 18:05N 34°24' W 119°41'0 0.0
2018-Feb-17 17:38N 34°24' W 119°41'0 0.0
2018-Feb-17 16:10N 34°24' W 119°41'0 0.0
2018-Feb-17 15:52N 34°24' W 119°41'0 0.0
2018-Feb-17 14:29N 34°24' W 119°41'0 0.0
2018-Feb-17 12:02N 34°24' W 119°41'0 0.0
2018-Feb-17 11:52N 34°24' W 119°41'0 0.0
2018-Feb-17 11:28N 34°24' W 119°41'0 0.0
2018-Feb-17 07:46N 34°24' W 119°41'0 0.0
2018-Feb-17 07:17N 34°24' W 119°41'0 0.0
2018-Feb-16 18:25N 34°24' W 119°41'0 0.0
2018-Feb-16 15:03N 34°24' W 119°41'0 0.0
2018-Feb-16 13:48N 34°24' W 119°41'0 0.0
2018-Feb-16 12:51N 34°24' W 119°41'0 0.0
2018-Feb-16 11:54N 34°24' W 119°41'0 0.0
2018-Feb-16 11:30N 34°24' W 119°41'0 0.0
2018-Feb-16 04:30N 34°24' W 119°41'0 0.0
2018-Feb-16 03:09N 34°24' W 119°41'0 0.0
2018-Feb-16 03:00N 34°24' W 119°41'0 0.0
2018-Feb-16 00:09N 34°24' W 119°41'0 0.0
2018-Feb-15 23:48N 34°24' W 119°41'0 0.0
2018-Feb-15 18:03N 34°24' W 119°41'0 0.0
2018-Feb-15 16:45N 34°24' W 119°41'0 0.0
2018-Feb-15 16:21N 34°24' W 119°41'0 0.0
2018-Feb-15 15:09N 34°24' W 119°41'0 0.0
2018-Feb-15 14:54N 34°24' W 119°41'0 0.0
2018-Feb-15 12:42N 34°24' W 119°41'0 0.0
2018-Feb-15 11:39N 34°24' W 119°41'0 0.0
2018-Feb-15 11:21N 34°24' W 119°41'0 0.0
2018-Feb-15 08:18N 34°24' W 119°41'0 0.0
2018-Feb-15 04:09N 34°24' W 119°41'0 0.0
2018-Feb-15 00:43N 34°24' W 119°41'0 0.5
2018-Feb-15 00:28N 34°24' W 119°42'4 9.4
2018-Feb-15 00:00N 34°21' W 119°38'0 0.6
2018-Feb-14 23:29N 34°21' W 119°38'0 0.6
2018-Feb-14 23:00N 34°21' W 119°38'0 0.6
2018-Feb-14 22:29N 34°22' W 119°38'1 1.7
2018-Feb-14 21:59N 34°22' W 119°38'3 0.8
2018-Feb-14 17:55N 34°24' W 119°41'0 0.0
2018-Feb-14 16:37N 34°24' W 119°41'0 0.0
2018-Feb-14 16:19N 34°24' W 119°41'0 0.0
2018-Feb-14 09:31N 34°24' W 119°41'0 0.0
2018-Feb-14 09:19N 34°24' W 119°41'0 0.0
2018-Feb-14 08:58N 34°24' W 119°41'0 0.0
2018-Feb-14 08:10N 34°24' W 119°41'0 0.0
2018-Feb-14 02:01N 34°24' W 119°41'0 0.0
2018-Feb-14 01:40N 34°24' W 119°41'0 0.0
2018-Feb-14 00:16N 34°24' W 119°41'0 0.0
2018-Feb-13 23:55N 34°24' W 119°41'0 0.0
2018-Feb-13 23:22N 34°24' W 119°41'1 3.3
2018-Feb-13 23:00N 34°24' W 119°40'815.7
2018-Feb-13 22:29N 34°20' W 119°32'3 6.0
2018-Feb-13 21:59N 34°18' W 119°29'4 7.6
2018-Feb-13 21:30N 34°20' W 119°32'2 3.7
2018-Feb-13 21:00N 34°20' W 119°30'13 3.5
2018-Feb-13 17:25N 34°15' W 119°16'0 0.0
2018-Feb-13 16:46N 34°15' W 119°16'0 0.0
2018-Feb-13 15:43N 34°15' W 119°16'0 0.0
2018-Feb-13 15:13N 34°15' W 119°16'0 0.0
2018-Feb-13 14:57N 34°15' W 119°16'0 0.0
2018-Feb-13 13:16N 34°15' W 119°16'0 0.0
2018-Feb-13 12:58N 34°15' W 119°16'0 0.0
2018-Feb-13 12:30N 34°15' W 119°16'0 0.0
2018-Feb-13 11:03N 34°15' W 119°16'0 0.0
2018-Feb-13 10:43N 34°15' W 119°16'0 0.0
2018-Feb-13 10:30N 34°15' W 119°16'0 0.0
2018-Feb-13 08:39N 34°15' W 119°16'0 0.0
2018-Feb-13 08:22N 34°15' W 119°16'0 0.0
2018-Feb-13 07:42N 34°15' W 119°16'0 0.0
2018-Feb-13 07:27N 34°15' W 119°16'0 0.0
2018-Feb-13 06:42N 34°15' W 119°16'0 0.0
2018-Feb-13 05:51N 34°15' W 119°16'0 0.0
2018-Feb-13 04:55N 34°15' W 119°16'0 0.0
2018-Feb-13 03:48N 34°15' W 119°16'0 0.0
2018-Feb-12 23:45N 34°15' W 119°16'0 0.0
2018-Feb-12 23:30N 34°15' W 119°16'0 0.0
2018-Feb-12 22:57N 34°15' W 119°16'0 0.0
2018-Feb-12 22:30N 34°15' W 119°16'0 0.0
2018-Feb-12 21:45N 34°15' W 119°16'0 0.0
2018-Feb-12 21:30N 34°15' W 119°16'0 0.0
2018-Feb-12 21:00N 34°15' W 119°16'0 0.0
2018-Feb-12 20:15N 34°15' W 119°16'0 0.0
2018-Feb-12 19:57N 34°15' W 119°16'0 0.0
2018-Feb-12 19:21N 34°15' W 119°16'0 0.0
2018-Feb-12 18:45N 34°15' W 119°16'0 0.0
2018-Feb-12 18:30N 34°15' W 119°16'0 0.0
2018-Feb-12 17:57N 34°15' W 119°16'0 0.0
2018-Feb-12 17:27N 34°15' W 119°16'0 0.0
2018-Feb-12 16:51N 34°15' W 119°16'0 0.0
2018-Feb-12 15:09N 34°15' W 119°16'0 0.0
2018-Feb-12 13:30N 34°15' W 119°16'0 0.0
2018-Feb-12 13:00N 34°15' W 119°16'0 0.0
2018-Feb-12 11:45N 34°15' W 119°16'0 0.0
2018-Feb-12 11:15N 34°15' W 119°16'0 0.0
2018-Feb-12 11:00N 34°15' W 119°16'0 0.0
2018-Feb-12 10:09N 34°15' W 119°16'0 0.0
2018-Feb-12 10:00N 34°15' W 119°16'0 0.0
2018-Feb-12 09:27N 34°15' W 119°16'0 0.0
2018-Feb-12 08:48N 34°15' W 119°16'0 0.0
2018-Feb-12 08:03N 34°15' W 119°16'0 0.0
2018-Feb-12 07:42N 34°15' W 119°16'0 0.0
2018-Feb-12 07:21N 34°15' W 119°16'0 0.0
2018-Feb-12 06:12N 34°15' W 119°16'0 0.0
2018-Feb-12 06:00N 34°15' W 119°16'0 0.0
2018-Feb-12 05:30N 34°15' W 119°16'0 0.0
2018-Feb-12 05:00N 34°15' W 119°16'0 0.0
2018-Feb-12 04:27N 34°15' W 119°16'0 0.0
2018-Feb-12 03:09N 34°15' W 119°16'0 0.0
2018-Feb-12 03:00N 34°15' W 119°16'0 0.0
2018-Feb-12 02:18N 34°15' W 119°16'0 0.0
2018-Feb-12 01:33N 34°15' W 119°16'0 0.0
2018-Feb-12 01:15N 34°15' W 119°16'0 0.0
2018-Feb-11 20:09N 34°15' W 119°16'0 0.0
2018-Feb-11 20:00N 34°15' W 119°16'0 0.0
2018-Feb-11 19:27N 34°15' W 119°16'0 0.0
2018-Feb-11 19:00N 34°15' W 119°16'0 0.0
2018-Feb-11 14:12N 34°15' W 119°16'0 0.0
2018-Feb-11 13:48N 34°15' W 119°16'0 0.0
2018-Feb-11 11:39N 34°15' W 119°16'0 0.0
2018-Feb-11 11:30N 34°15' W 119°16'0 0.0
2018-Feb-11 09:45N 34°15' W 119°16'0 0.0
2018-Feb-11 07:36N 34°15' W 119°16'0 0.0
2018-Feb-11 07:30N 34°15' W 119°16'0 0.0
2018-Feb-11 02:27N 34°15' W 119°16'0 0.0
2018-Feb-10 23:45N 34°15' W 119°16'0 0.0
2018-Feb-10 23:30N 34°15' W 119°16'0 0.0
2018-Feb-10 22:45N 34°15' W 119°16'0 0.0
2018-Feb-10 22:27N 34°15' W 119°16'0 0.0
2018-Feb-10 21:33N 34°15' W 119°16'0 0.0
2018-Feb-10 21:21N 34°15' W 119°16'0 0.0
2018-Feb-10 13:33N 34°15' W 119°16'0 0.0
2018-Feb-10 10:00N 34°15' W 119°16'0 0.0
2018-Feb-10 09:24N 34°15' W 119°16'0 0.0
2018-Feb-10 08:42N 34°15' W 119°16'0 0.0
2018-Feb-10 05:03N 34°15' W 119°16'0 0.0
2018-Feb-10 05:00N 34°15' W 119°16'0 0.0
2018-Feb-10 03:09N 34°15' W 119°16'0 0.0
2018-Feb-10 03:00N 34°15' W 119°16'0 0.0
2018-Feb-10 02:27N 34°15' W 119°16'0 0.0
2018-Feb-10 01:00N 34°15' W 119°16'  
Track history (hours):
 
Tides and Currents Weather Stations Pressure Air Temp Water Temp Dewpoint Dewpoint Depression Visibility Wind Speed Wind Dir Waves Ship Positions

Ocean Defender

Owner: Marine Spill Response Corporation, Long Beach, CA. More information available from US FCC via Universal Licensing System and Coast Guard Vessel Documentation Center.

Last reported at 2018-Feb-18 22:44 UTC. Time now 2018-Feb-19 12:00 UTC.
Position N 34°24' W 119°41'.

Length 20 m; draft 3 m.

Type: Pollution control. MMSI: 367546320.

Date/timePositionNaut miles runAvg speedWind from/ knotsBaromVisibWave heightAir tempDewpointWater temp
2018-Feb-18 22:44N 34°24' W 119°41'0 0.0
2018-Feb-18 21:41N 34°24' W 119°41'0 0.0
2018-Feb-18 21:20N 34°24' W 119°41'0 0.0
2018-Feb-18 18:53N 34°24' W 119°41'0 0.0
2018-Feb-18 17:32N 34°24' W 119°41'0 0.0
2018-Feb-18 17:05N 34°24' W 119°41'0 0.0
2018-Feb-18 16:53N 34°24' W 119°41'0 0.0
2018-Feb-18 16:29N 34°24' W 119°41'0 0.0
2018-Feb-18 13:59N 34°24' W 119°41'0 0.0
2018-Feb-18 13:29N 34°24' W 119°41'0 0.0
2018-Feb-18 10:35N 34°24' W 119°41'0 0.0
2018-Feb-18 10:20N 34°24' W 119°41'0 0.0
2018-Feb-18 09:59N 34°24' W 119°41'0 0.0
2018-Feb-18 09:26N 34°24' W 119°41'0 0.0
2018-Feb-18 08:38N 34°24' W 119°41'0 0.0
2018-Feb-18 08:29N 34°24' W 119°41'0 0.0
2018-Feb-18 07:02N 34°24' W 119°41'0 0.0
2018-Feb-18 06:41N 34°24' W 119°41'0 0.0
2018-Feb-18 04:59N 34°24' W 119°41'0 0.0
2018-Feb-18 04:02N 34°24' W 119°41'0 0.0
2018-Feb-18 03:53N 34°24' W 119°41'0 0.0
2018-Feb-18 02:17N 34°24' W 119°41'0 0.0
2018-Feb-17 23:13N 34°24' W 119°41'0 0.0
2018-Feb-17 22:43N 34°24' W 119°41'0 0.0
2018-Feb-17 20:35N 34°24' W 119°41'0 0.0
2018-Feb-17 20:22N 34°24' W 119°41'0 0.0
2018-Feb-17 18:53N 34°24' W 119°41'0 0.0
2018-Feb-17 18:05N 34°24' W 119°41'0 0.0
2018-Feb-17 17:38N 34°24' W 119°41'0 0.0
2018-Feb-17 16:10N 34°24' W 119°41'0 0.0
2018-Feb-17 15:52N 34°24' W 119°41'0 0.0
2018-Feb-17 14:29N 34°24' W 119°41'0 0.0
2018-Feb-17 12:02N 34°24' W 119°41'0 0.0
2018-Feb-17 11:52N 34°24' W 119°41'0 0.0
2018-Feb-17 11:28N 34°24' W 119°41'0 0.0
2018-Feb-17 07:46N 34°24' W 119°41'0 0.0
2018-Feb-17 07:17N 34°24' W 119°41'0 0.0
2018-Feb-16 18:25N 34°24' W 119°41'0 0.0
2018-Feb-16 15:03N 34°24' W 119°41'0 0.0
2018-Feb-16 13:48N 34°24' W 119°41'0 0.0
2018-Feb-16 12:51N 34°24' W 119°41'0 0.0
2018-Feb-16 11:54N 34°24' W 119°41'0 0.0
2018-Feb-16 11:30N 34°24' W 119°41'0 0.0
2018-Feb-16 04:30N 34°24' W 119°41'0 0.0
2018-Feb-16 03:09N 34°24' W 119°41'0 0.0
2018-Feb-16 03:00N 34°24' W 119°41'0 0.0
2018-Feb-16 00:09N 34°24' W 119°41'0 0.0
2018-Feb-15 23:48N 34°24' W 119°41'0 0.0
2018-Feb-15 18:03N 34°24' W 119°41'0 0.0
2018-Feb-15 16:45N 34°24' W 119°41'0 0.0
2018-Feb-15 16:21N 34°24' W 119°41'0 0.0
2018-Feb-15 15:09N 34°24' W 119°41'0 0.0
2018-Feb-15 14:54N 34°24' W 119°41'0 0.0
2018-Feb-15 12:42N 34°24' W 119°41'0 0.0
2018-Feb-15 11:39N 34°24' W 119°41'0 0.0
2018-Feb-15 11:21N 34°24' W 119°41'0 0.0
2018-Feb-15 08:18N 34°24' W 119°41'0 0.0
2018-Feb-15 04:09N 34°24' W 119°41'0 0.0
2018-Feb-15 00:43N 34°24' W 119°41'0 0.5
2018-Feb-15 00:28N 34°24' W 119°42'4 9.4
2018-Feb-15 00:00N 34°21' W 119°38'0 0.6
2018-Feb-14 23:29N 34°21' W 119°38'0 0.6
2018-Feb-14 23:00N 34°21' W 119°38'0 0.6
2018-Feb-14 22:29N 34°22' W 119°38'1 1.7
2018-Feb-14 21:59N 34°22' W 119°38'3 0.8
2018-Feb-14 17:55N 34°24' W 119°41'0 0.0
2018-Feb-14 16:37N 34°24' W 119°41'0 0.0
2018-Feb-14 16:19N 34°24' W 119°41'0 0.0
2018-Feb-14 09:31N 34°24' W 119°41'0 0.0
2018-Feb-14 09:19N 34°24' W 119°41'0 0.0
2018-Feb-14 08:58N 34°24' W 119°41'0 0.0
2018-Feb-14 08:10N 34°24' W 119°41'0 0.0
2018-Feb-14 02:01N 34°24' W 119°41'0 0.0
2018-Feb-14 01:40N 34°24' W 119°41'0 0.0
2018-Feb-14 00:16N 34°24' W 119°41'0 0.0
2018-Feb-13 23:55N 34°24' W 119°41'0 0.0
2018-Feb-13 23:22N 34°24' W 119°41'1 3.3
2018-Feb-13 23:00N 34°24' W 119°40'815.7
2018-Feb-13 22:29N 34°20' W 119°32'3 6.0
2018-Feb-13 21:59N 34°18' W 119°29'4 7.6
2018-Feb-13 21:30N 34°20' W 119°32'2 3.7
2018-Feb-13 21:00N 34°20' W 119°30'13 3.5
2018-Feb-13 17:25N 34°15' W 119°16'0 0.0
2018-Feb-13 16:46N 34°15' W 119°16'0 0.0
2018-Feb-13 15:43N 34°15' W 119°16'0 0.0
2018-Feb-13 15:13N 34°15' W 119°16'0 0.0
2018-Feb-13 14:57N 34°15' W 119°16'0 0.0
2018-Feb-13 13:16N 34°15' W 119°16'0 0.0
2018-Feb-13 12:58N 34°15' W 119°16'0 0.0
2018-Feb-13 12:30N 34°15' W 119°16'0 0.0
2018-Feb-13 11:03N 34°15' W 119°16'0 0.0
2018-Feb-13 10:43N 34°15' W 119°16'0 0.0
2018-Feb-13 10:30N 34°15' W 119°16'0 0.0
2018-Feb-13 08:39N 34°15' W 119°16'0 0.0
2018-Feb-13 08:22N 34°15' W 119°16'0 0.0
2018-Feb-13 07:42N 34°15' W 119°16'0 0.0
2018-Feb-13 07:27N 34°15' W 119°16'0 0.0
2018-Feb-13 06:42N 34°15' W 119°16'0 0.0
2018-Feb-13 05:51N 34°15' W 119°16'0 0.0
2018-Feb-13 04:55N 34°15' W 119°16'0 0.0
2018-Feb-13 03:48N 34°15' W 119°16'0 0.0
2018-Feb-12 23:45N 34°15' W 119°16'0 0.0
2018-Feb-12 23:30N 34°15' W 119°16'0 0.0
2018-Feb-12 22:57N 34°15' W 119°16'0 0.0
2018-Feb-12 22:30N 34°15' W 119°16'0 0.0
2018-Feb-12 21:45N 34°15' W 119°16'0 0.0
2018-Feb-12 21:30N 34°15' W 119°16'0 0.0
2018-Feb-12 21:00N 34°15' W 119°16'0 0.0
2018-Feb-12 20:15N 34°15' W 119°16'0 0.0
2018-Feb-12 19:57N 34°15' W 119°16'0 0.0
2018-Feb-12 19:21N 34°15' W 119°16'0 0.0
2018-Feb-12 18:45N 34°15' W 119°16'0 0.0
2018-Feb-12 18:30N 34°15' W 119°16'0 0.0
2018-Feb-12 17:57N 34°15' W 119°16'0 0.0
2018-Feb-12 17:27N 34°15' W 119°16'0 0.0
2018-Feb-12 16:51N 34°15' W 119°16'0 0.0
2018-Feb-12 15:09N 34°15' W 119°16'0 0.0
2018-Feb-12 13:30N 34°15' W 119°16'0 0.0
2018-Feb-12 13:00N 34°15' W 119°16'0 0.0
2018-Feb-12 11:45N 34°15' W 119°16'0 0.0
2018-Feb-12 11:15N 34°15' W 119°16'0 0.0
2018-Feb-12 11:00N 34°15' W 119°16'0 0.0
2018-Feb-12 10:09N 34°15' W 119°16'0 0.0
2018-Feb-12 10:00N 34°15' W 119°16'0 0.0
2018-Feb-12 09:27N 34°15' W 119°16'0 0.0
2018-Feb-12 08:48N 34°15' W 119°16'0 0.0
2018-Feb-12 08:03N 34°15' W 119°16'0 0.0
2018-Feb-12 07:42N 34°15' W 119°16'0 0.0
2018-Feb-12 07:21N 34°15' W 119°16'0 0.0
2018-Feb-12 06:12N 34°15' W 119°16'0 0.0
2018-Feb-12 06:00N 34°15' W 119°16'0 0.0
2018-Feb-12 05:30N 34°15' W 119°16'0 0.0
2018-Feb-12 05:00N 34°15' W 119°16'0 0.0
2018-Feb-12 04:27N 34°15' W 119°16'0 0.0
2018-Feb-12 03:09N 34°15' W 119°16'0 0.0
2018-Feb-12 03:00N 34°15' W 119°16'0 0.0
2018-Feb-12 02:18N 34°15' W 119°16'0 0.0
2018-Feb-12 01:33N 34°15' W 119°16'0 0.0
2018-Feb-12 01:15N 34°15' W 119°16'0 0.0
2018-Feb-11 20:09N 34°15' W 119°16'0 0.0
2018-Feb-11 20:00N 34°15' W 119°16'0 0.0
2018-Feb-11 19:27N 34°15' W 119°16'0 0.0
2018-Feb-11 19:00N 34°15' W 119°16'0 0.0
2018-Feb-11 14:12N 34°15' W 119°16'0 0.0
2018-Feb-11 13:48N 34°15' W 119°16'0 0.0
2018-Feb-11 11:39N 34°15' W 119°16'0 0.0
2018-Feb-11 11:30N 34°15' W 119°16'0 0.0
2018-Feb-11 09:45N 34°15' W 119°16'0 0.0
2018-Feb-11 07:36N 34°15' W 119°16'0 0.0
2018-Feb-11 07:30N 34°15' W 119°16'0 0.0
2018-Feb-11 02:27N 34°15' W 119°16'0 0.0
2018-Feb-10 23:45N 34°15' W 119°16'0 0.0
2018-Feb-10 23:30N 34°15' W 119°16'0 0.0
2018-Feb-10 22:45N 34°15' W 119°16'0 0.0
2018-Feb-10 22:27N 34°15' W 119°16'0 0.0
2018-Feb-10 21:33N 34°15' W 119°16'0 0.0
2018-Feb-10 21:21N 34°15' W 119°16'0 0.0
2018-Feb-10 13:33N 34°15' W 119°16'0 0.0
2018-Feb-10 10:00N 34°15' W 119°16'0 0.0
2018-Feb-10 09:24N 34°15' W 119°16'0 0.0
2018-Feb-10 08:42N 34°15' W 119°16'0 0.0
2018-Feb-10 05:03N 34°15' W 119°16'0 0.0
2018-Feb-10 05:00N 34°15' W 119°16'0 0.0
2018-Feb-10 03:09N 34°15' W 119°16'0 0.0
2018-Feb-10 03:00N 34°15' W 119°16'0 0.0
2018-Feb-10 02:27N 34°15' W 119°16'0 0.0
2018-Feb-10 01:00N 34°15' W 119°16'  

Dump ship's entire track history